Time;durP1;ratioP1;P1;durP2;ratioP2;P2;SDS_P1;SDS_P2;PMS_P1;PMS_P2;Temp;Humidity;BMP_temperature;BMP_pressure;BME280_temperature;BME280_humidity;BME280_pressure;Samples;Min_cycle;Max_cycle;Signal;HPM_P1;HPM_P2
2021/01/12 00:02:03;;;;;;;132.45;43.80;;;;;;;;;;8261556;28;20386;-71
2021/01/12 00:06:07;;;;;;;134.88;43.35;;;;;;;;;;8243502;28;20427;-71
2021/01/12 00:10:11;;;;;;;136.63;44.88;;;;;;;;;;8260291;28;20467;-72
2021/01/12 00:18:31;;;;;;;121.57;42.25;;;;;;;;;;8260051;28;20467;-71
2021/01/12 00:22:34;;;;;;;126.35;41.65;;;;;;;;;;8257725;28;20460;-71
2021/01/12 00:26:37;;;;;;;126.45;42.33;;;;;;;;;;8258654;28;20108;-71
2021/01/12 00:30:40;;;;;;;131.48;43.20;;;;;;;;;;8256684;28;20382;-71
2021/01/12 00:34:45;;;;;;;134.95;43.97;;;;;;;;;;8257234;28;20382;-71
2021/01/12 00:38:48;;;;;;;173.88;49.85;;;;;;;;;;8256892;28;20083;-72
2021/01/12 00:42:51;;;;;;;157.15;46.00;;;;;;;;;;8257440;28;20487;-71
2021/01/12 00:46:55;;;;;;;222.45;55.58;;;;;;;;;;8257819;28;20477;-71
2021/01/12 00:50:58;;;;;;;132.20;44.42;;;;;;;;;;8256927;28;20379;-71
2021/01/12 00:55:02;;;;;;;147.07;42.45;;;;;;;;;;8272655;28;20399;-71
2021/01/12 00:59:05;;;;;;;201.07;52.72;;;;;;;;;;8258452;28;20360;-71
2021/01/12 01:03:08;;;;;;;117.13;37.15;;;;;;;;;;8258111;28;20376;-72
2021/01/12 01:07:11;;;;;;;108.63;37.30;;;;;;;;;;8258390;28;20482;-71
2021/01/12 01:11:15;;;;;;;103.63;37.33;;;;;;;;;;8258324;28;20383;-71
2021/01/12 01:15:18;;;;;;;106.97;37.28;;;;;;;;;;8258581;28;20375;-71
2021/01/12 01:19:21;;;;;;;126.65;39.75;;;;;;;;;;8258697;28;20075;-71
2021/01/12 01:23:24;;;;;;;150.05;42.20;;;;;;;;;;8256464;28;20476;-71
2021/01/12 01:27:27;;;;;;;124.85;39.88;;;;;;;;;;8258021;28;20487;-71
2021/01/12 01:31:42;;;;;;;99.65;35.25;;;;;;;;;;8255942;28;20076;-72
2021/01/12 01:35:45;;;;;;;97.30;31.63;;;;;;;;;;8258536;28;20344;-71
2021/01/12 01:39:48;;;;;;;82.22;29.70;;;;;;;;;;8256996;28;20048;-72
2021/01/12 01:43:51;;;;;;;111.38;35.35;;;;;;;;;;8255617;28;20652;-72
2021/01/12 01:47:54;;;;;;;102.55;32.15;;;;;;;;;;8255234;28;20524;-71
2021/01/12 01:51:58;;;;;;;111.97;35.33;;;;;;;;;;8257612;28;20410;-71
2021/01/12 01:56:05;;;;;;;91.07;31.83;;;;;;;;;;8256656;28;20045;-71
2021/01/12 02:00:11;;;;;;;87.50;31.58;;;;;;;;;;8255003;28;20088;-72
2021/01/12 02:04:37;;;;;;;122.47;34.90;;;;;;;;;;8255622;28;20378;-71
2021/01/12 02:08:50;;;;;;;52.55;21.40;;;;;;;;;;8256719;28;20497;-71
2021/01/12 02:13:01;;;;;;;145.25;38.38;;;;;;;;;;8256571;28;20475;-72
2021/01/12 02:17:06;;;;;;;99.75;32.85;;;;;;;;;;8254745;28;20414;-72
2021/01/12 02:21:10;;;;;;;95.78;29.30;;;;;;;;;;8256126;28;20387;-72
2021/01/12 02:25:18;;;;;;;83.63;26.98;;;;;;;;;;8255197;28;20487;-72
2021/01/12 02:29:22;;;;;;;90.77;28.33;;;;;;;;;;8254021;28;20480;-71
2021/01/12 02:33:25;;;;;;;129.93;34.85;;;;;;;;;;8256567;28;20790;-71
2021/01/12 02:37:28;;;;;;;54.20;19.75;;;;;;;;;;8256253;28;20044;-72
2021/01/12 02:41:33;;;;;;;43.75;17.58;;;;;;;;;;8255177;28;20483;-73
2021/01/12 02:45:36;;;;;;;79.97;23.80;;;;;;;;;;8255415;28;20407;-71
2021/01/12 02:49:39;;;;;;;55.03;19.33;;;;;;;;;;8255894;28;20405;-71
2021/01/12 02:53:42;;;;;;;53.97;17.92;;;;;;;;;;8256270;28;20056;-71
2021/01/12 02:57:44;;;;;;;36.58;15.70;;;;;;;;;;8253899;28;20071;-72
2021/01/12 03:01:51;;;;;;;37.78;15.82;;;;;;;;;;8256166;28;20471;-72
2021/01/12 03:05:55;;;;;;;52.38;16.90;;;;;;;;;;8254118;28;20498;-72
2021/01/12 03:09:58;;;;;;;38.83;17.25;;;;;;;;;;8254906;28;20464;-72
2021/01/12 03:14:03;;;;;;;35.20;14.18;;;;;;;;;;8254953;28;20456;-71
2021/01/12 03:18:07;;;;;;;29.23;13.40;;;;;;;;;;8238425;28;20383;-71
2021/01/12 03:22:10;;;;;;;34.42;13.73;;;;;;;;;;8261928;28;20075;-72
2021/01/12 03:26:14;;;;;;;40.25;13.88;;;;;;;;;;8260327;28;20037;-72
2021/01/12 03:30:18;;;;;;;38.33;16.50;;;;;;;;;;8261586;28;20049;-72
2021/01/12 03:34:21;;;;;;;39.40;14.82;;;;;;;;;;8260576;28;20049;-72
2021/01/12 03:38:24;;;;;;;42.85;16.75;;;;;;;;;;8260604;28;20474;-71
2021/01/12 03:42:27;;;;;;;52.92;18.33;;;;;;;;;;8261172;28;20485;-72
2021/01/12 03:46:30;;;;;;;44.08;18.50;;;;;;;;;;8261143;28;20360;-73
2021/01/12 03:50:33;;;;;;;57.33;20.27;;;;;;;;;;8243759;28;20360;-71
2021/01/12 03:54:36;;;;;;;41.72;17.27;;;;;;;;;;8261134;28;20480;-72
2021/01/12 03:58:42;;;;;;;54.45;20.67;;;;;;;;;;8259838;28;20464;-72
2021/01/12 04:02:45;;;;;;;47.17;19.58;;;;;;;;;;8243430;28;20367;-72
2021/01/12 04:06:48;;;;;;;48.28;19.17;;;;;;;;;;8260689;28;20413;-72
2021/01/12 04:10:51;;;;;;;51.90;20.67;;;;;;;;;;8242471;28;20487;-71
2021/01/12 04:14:53;;;;;;;89.95;28.60;;;;;;;;;;8258722;28;20518;-71
2021/01/12 04:18:56;;;;;;;683.70;145.85;;;;;;;;;;8258605;28;20049;-72
2021/01/12 04:22:59;;;;;;;1236.60;299.70;;;;;;;;;;8260767;28;20482;-72
2021/01/12 04:27:03;;;;;;;363.23;79.57;;;;;;;;;;8259531;28;20387;-72
2021/01/12 04:31:05;;;;;;;564.25;132.45;;;;;;;;;;8260046;28;20515;-72
2021/01/12 04:35:09;;;;;;;229.35;56.00;;;;;;;;;;8258786;28;20372;-71
2021/01/12 04:39:12;;;;;;;102.10;33.40;;;;;;;;;;8260275;28;20071;-72
2021/01/12 04:43:15;;;;;;;88.07;29.88;;;;;;;;;;8259337;28;20387;-71
2021/01/12 04:47:18;;;;;;;83.53;29.70;;;;;;;;;;8256245;28;20502;-72
2021/01/12 04:51:24;;;;;;;79.18;28.13;;;;;;;;;;8256145;28;20486;-72
2021/01/12 04:55:27;;;;;;;76.80;27.58;;;;;;;;;;8253980;28;20071;-72
2021/01/12 04:59:34;;;;;;;73.50;27.60;;;;;;;;;;8258669;28;20376;-73
2021/01/12 05:03:41;;;;;;;67.88;25.52;;;;;;;;;;8257791;28;20484;-71
2021/01/12 05:07:43;;;;;;;72.25;25.88;;;;;;;;;;8257556;28;20375;-72
2021/01/12 05:11:47;;;;;;;83.50;29.70;;;;;;;;;;8257313;28;20403;-72
2021/01/12 05:15:52;;;;;;;237.30;52.55;;;;;;;;;;8257613;28;20472;-72
2021/01/12 05:19:56;;;;;;;234.40;50.88;;;;;;;;;;8257307;28;20460;-71
2021/01/12 05:24:05;;;;;;;295.25;58.42;;;;;;;;;;8256123;28;20382;-72
2021/01/12 05:28:13;;;;;;;267.02;57.83;;;;;;;;;;8254615;28;20056;-71
2021/01/12 05:32:17;;;;;;;385.60;69.85;;;;;;;;;;8254082;28;20359;-72
2021/01/12 05:36:21;;;;;;;179.13;44.42;;;;;;;;;;8252320;28;20491;-72
2021/01/12 05:40:24;;;;;;;245.75;68.13;;;;;;;;;;8252514;28;20471;-72
2021/01/12 05:44:39;;;;;;;304.25;69.32;;;;;;;;;;8253546;28;20471;-72
2021/01/12 05:48:45;;;;;;;326.38;63.25;;;;;;;;;;8253498;28;20495;-71
2021/01/12 05:53:20;;;;;;;341.60;69.38;;;;;;;;;;8255248;28;20488;-71
2021/01/12 05:57:23;;;;;;;488.27;107.38;;;;;;;;;;8251378;28;20053;-71
2021/01/12 06:01:44;;;;;;;229.85;59.28;;;;;;;;;;8235321;28;20045;-72
2021/01/12 06:05:49;;;;;;;107.18;30.90;;;;;;;;;;8252946;28;20456;-71
2021/01/12 06:09:55;;;;;;;279.98;52.22;;;;;;;;;;8252098;28;20387;-72
2021/01/12 06:14:08;;;;;;;268.27;52.75;;;;;;;;;;8252235;28;20049;-72
2021/01/12 06:18:19;;;;;;;366.55;62.50;;;;;;;;;;8187816;28;20053;-71
2021/01/12 06:22:23;;;;;;;270.83;56.13;;;;;;;;;;8250345;28;20064;-72
2021/01/12 06:26:27;;;;;;;405.75;71.20;;;;;;;;;;8234406;28;20052;-72
2021/01/12 06:30:31;;;;;;;429.40;77.30;;;;;;;;;;8250417;28;20471;-72
2021/01/12 06:34:34;;;;;;;305.13;62.40;;;;;;;;;;8234333;28;20053;-72
2021/01/12 06:38:38;;;;;;;349.42;62.53;;;;;;;;;;8250856;28;20048;-71
2021/01/12 06:42:41;;;;;;;400.92;73.00;;;;;;;;;;8250291;28;20452;-73
2021/01/12 06:46:45;;;;;;;129.93;38.55;;;;;;;;;;8252330;28;20394;-71
2021/01/12 06:50:49;;;;;;;220.75;46.17;;;;;;;;;;8250481;28;20502;-71
2021/01/12 06:54:52;;;;;;;211.63;43.30;;;;;;;;;;8249417;28;20057;-73
2021/01/12 06:58:55;;;;;;;68.25;25.63;;;;;;;;;;8214162;28;20079;-72
2021/01/12 07:02:59;;;;;;;67.03;22.77;;;;;;;;;;8213945;28;20057;-71
2021/01/12 07:07:03;;;;;;;69.90;23.80;;;;;;;;;;8197177;28;20388;-71
2021/01/12 07:11:06;;;;;;;68.57;22.80;;;;;;;;;;8197621;28;20599;-71
2021/01/12 07:15:20;;;;;;;88.22;29.10;;;;;;;;;;8198068;28;20360;-71
2021/01/12 07:19:24;;;;;;;113.03;34.20;;;;;;;;;;8214300;28;20361;-71
2021/01/12 07:23:27;;;;;;;126.15;30.67;;;;;;;;;;8197551;28;20046;-71
2021/01/12 07:27:30;;;;;;;170.70;39.30;;;;;;;;;;8216260;28;20460;-71
2021/01/12 07:31:33;;;;;;;158.68;35.75;;;;;;;;;;8251319;28;20390;-71
2021/01/12 07:35:37;;;;;;;177.63;37.15;;;;;;;;;;8234001;28;20480;-71
2021/01/12 07:39:42;;;;;;;86.72;28.08;;;;;;;;;;8232606;28;20357;-73
2021/01/12 07:43:45;;;;;;;79.80;28.65;;;;;;;;;;8251661;28;20398;-71
2021/01/12 07:47:57;;;;;;;69.03;26.00;;;;;;;;;;8251432;28;20498;-71
2021/01/12 07:52:01;;;;;;;177.95;37.17;;;;;;;;;;8251141;28;20360;-72
2021/01/12 07:56:04;;;;;;;199.43;38.13;;;;;;;;;;8250701;28;20115;-71
2021/01/12 08:00:14;;;;;;;233.85;39.60;;;;;;;;;;8250137;28;20444;-71
2021/01/12 08:04:16;;;;;;;;;;;;;;;;;;8250154;28;20478;-72
2021/01/12 08:08:24;;;;;;;157.02;35.53;;;;;;;;;;8256685;28;20271;-72
2021/01/12 08:12:28;;;;;;;182.67;38.10;;;;;;;;;;8238622;28;20443;-73
2021/01/12 08:16:32;;;;;;;207.88;42.05;;;;;;;;;;8237631;28;20468;-73
2021/01/12 08:20:36;;;;;;;56.17;21.10;;;;;;;;;;8254399;28;20391;-73
2021/01/12 08:24:39;;;;;;;165.65;35.47;;;;;;;;;;8255522;28;20061;-73
2021/01/12 08:28:45;;;;;;;137.73;34.72;;;;;;;;;;8256113;28;20053;-73
2021/01/12 08:33:11;;;;;;;115.13;37.05;;;;;;;;;;8255994;28;20533;-74
2021/01/12 08:37:16;;;;;;;70.07;26.40;;;;;;;;;;8253677;28;20069;-73
2021/01/12 08:41:20;;;;;;;192.68;46.63;;;;;;;;;;8253858;28;20411;-73
2021/01/12 08:45:32;;;;;;;165.40;40.38;;;;;;;;;;8253430;28;20048;-72
2021/01/12 08:49:36;;;;;;;92.07;28.73;;;;;;;;;;8255138;28;20460;-72
2021/01/12 08:53:40;;;;;;;111.47;30.80;;;;;;;;;;8255368;28;20389;-72
2021/01/12 08:57:53;;;;;;;124.05;29.60;;;;;;;;;;8252456;28;20383;-73
2021/01/12 09:01:58;;;;;;;96.28;24.88;;;;;;;;;;8253694;28;20406;-72
2021/01/12 09:06:04;;;;;;;56.20;19.08;;;;;;;;;;8252239;28;20360;-72
2021/01/12 09:10:08;;;;;;;171.48;40.95;;;;;;;;;;8269704;28;20414;-72
2021/01/12 09:14:11;;;;;;;165.27;39.60;;;;;;;;;;8253940;28;20049;-73
2021/01/12 09:18:19;;;;;;;127.90;32.55;;;;;;;;;;8251473;28;20463;-72
2021/01/12 09:22:23;;;;;;;120.65;32.47;;;;;;;;;;8254287;28;20468;-72
2021/01/12 09:26:27;;;;;;;194.20;43.78;;;;;;;;;;8253197;28;20076;-72
2021/01/12 09:30:30;;;;;;;84.80;25.15;;;;;;;;;;8252940;28;20056;-73
2021/01/12 09:34:33;;;;;;;167.82;38.28;;;;;;;;;;8253704;28;20076;-73
2021/01/12 09:38:49;;;;;;;158.25;37.33;;;;;;;;;;8253844;28;20045;-72
2021/01/12 09:42:52;;;;;;;174.48;41.97;;;;;;;;;;8253629;28;20091;-73
2021/01/12 09:47:01;;;;;;;69.43;25.25;;;;;;;;;;8252689;28;20432;-73
2021/01/12 09:51:10;;;;;;;182.57;47.47;;;;;;;;;;8250464;28;20382;-73
2021/01/12 09:55:13;;;;;;;115.72;31.38;;;;;;;;;;8233939;28;20501;-72
2021/01/12 09:59:17;;;;;;;132.30;33.10;;;;;;;;;;8252580;28;20045;-72
2021/01/12 10:03:20;;;;;;;167.35;36.88;;;;;;;;;;8253280;28;20349;-73
2021/01/12 10:07:23;;;;;;;159.85;40.38;;;;;;;;;;8252863;28;20396;-72
2021/01/12 10:11:28;;;;;;;110.53;26.10;;;;;;;;;;8250876;28;20486;-72
2021/01/12 10:15:32;;;;;;;110.43;30.58;;;;;;;;;;8252802;28;20376;-72
2021/01/12 10:19:36;;;;;;;137.88;31.80;;;;;;;;;;8250821;28;20478;-72
2021/01/12 10:23:39;;;;;;;60.13;21.33;;;;;;;;;;8250261;28;20699;-73
2021/01/12 10:27:42;;;;;;;129.48;33.35;;;;;;;;;;8250534;28;20528;-73
2021/01/12 10:31:45;;;;;;;44.97;17.60;;;;;;;;;;8250052;28;20394;-73
2021/01/12 10:35:48;;;;;;;93.65;24.88;;;;;;;;;;8250672;28;20045;-73
2021/01/12 10:39:52;;;;;;;88.38;25.95;;;;;;;;;;8250512;28;20353;-73
2021/01/12 10:43:55;;;;;;;119.78;33.28;;;;;;;;;;8251181;28;20415;-73
2021/01/12 10:47:59;;;;;;;172.05;43.70;;;;;;;;;;8249955;28;20075;-74
2021/01/12 10:52:06;;;;;;;63.65;22.67;;;;;;;;;;8250214;28;20655;-73
2021/01/12 10:56:15;;;;;;;93.25;28.30;;;;;;;;;;8232359;28;20410;-73
2021/01/12 11:00:19;;;;;;;90.20;26.30;;;;;;;;;;8250886;28;20041;-73
2021/01/12 11:04:22;;;;;;;63.30;19.60;;;;;;;;;;8251306;28;20459;-71
2021/01/12 11:08:25;;;;;;;60.90;18.67;;;;;;;;;;8251408;28;20443;-71
2021/01/12 11:12:30;;;;;;;55.75;17.05;;;;;;;;;;8250560;28;20048;-71
2021/01/12 11:16:40;;;;;;;86.55;22.10;;;;;;;;;;8252163;28;20376;-71
2021/01/12 11:20:44;;;;;;;1348.88;410.17;;;;;;;;;;8250842;28;20407;-71
2021/01/12 11:24:48;;;;;;;1290.68;382.08;;;;;;;;;;8251526;28;20590;-71
2021/01/12 11:28:51;;;;;;;319.40;57.58;;;;;;;;;;8250635;28;20053;-71
2021/01/12 11:32:55;;;;;;;126.65;25.40;;;;;;;;;;8250430;28;20367;-72
2021/01/12 11:36:58;;;;;;;34.83;11.35;;;;;;;;;;8248787;28;20072;-71
2021/01/12 11:41:01;;;;;;;70.68;16.67;;;;;;;;;;8253761;28;20483;-72
2021/01/12 11:45:07;;;;;;;30.83;11.35;;;;;;;;;;8258022;28;20499;-73
2021/01/12 11:49:10;;;;;;;101.38;23.33;;;;;;;;;;8238757;28;20049;-71
2021/01/12 11:53:13;;;;;;;80.05;18.33;;;;;;;;;;8255775;28;20360;-73
2021/01/12 11:57:16;;;;;;;51.13;14.63;;;;;;;;;;8221146;28;20057;-71
2021/01/12 12:01:19;;;;;;;48.80;15.82;;;;;;;;;;8254511;28;20486;-71
2021/01/12 12:05:22;;;;;;;51.33;17.85;;;;;;;;;;8253937;28;20080;-70
2021/01/12 12:09:27;;;;;;;26.63;10.02;;;;;;;;;;8257502;28;20053;-71
2021/01/12 12:13:30;;;;;;;41.85;15.75;;;;;;;;;;8256685;28;20110;-71
2021/01/12 12:17:33;;;;;;;30.20;12.02;;;;;;;;;;8256184;28;20397;-72
2021/01/12 12:21:45;;;;;;;30.85;12.65;;;;;;;;;;8258019;28;20053;-72
2021/01/12 12:25:48;;;;;;;23.70;11.15;;;;;;;;;;8254757;28;20503;-70
2021/01/12 12:29:51;;;;;;;27.13;11.98;;;;;;;;;;8221022;28;20487;-70
2021/01/12 12:33:54;;;;;;;25.38;11.70;;;;;;;;;;8253602;28;20472;-71
2021/01/12 12:37:57;;;;;;;24.27;10.15;;;;;;;;;;8255428;28;20060;-70
2021/01/12 12:42:00;;;;;;;20.30;8.68;;;;;;;;;;8254386;28;20463;-71
2021/01/12 12:46:04;;;;;;;42.50;18.70;;;;;;;;;;8252349;28;20057;-71
2021/01/12 12:50:07;;;;;;;27.75;11.27;;;;;;;;;;8252045;28;20061;-70
2021/01/12 12:54:10;;;;;;;34.42;14.85;;;;;;;;;;8255066;28;20467;-71
2021/01/12 12:58:14;;;;;;;33.40;11.25;;;;;;;;;;8254893;28;20053;-74
2021/01/12 13:02:17;;;;;;;23.85;11.93;;;;;;;;;;8256603;28;20391;-73
2021/01/12 13:06:24;;;;;;;48.75;19.83;;;;;;;;;;8254322;28;20049;-73
2021/01/12 13:10:26;;;;;;;32.08;13.55;;;;;;;;;;8251848;28;20479;-75
2021/01/12 13:14:32;;;;;;;57.65;27.92;;;;;;;;;;8253525;28;20391;-74
2021/01/12 13:18:42;;;;;;;144.15;45.45;;;;;;;;;;8253884;28;20384;-73
2021/01/12 13:22:45;;;;;;;349.27;95.10;;;;;;;;;;8252631;28;20376;-74
2021/01/12 13:26:52;;;;;;;196.85;53.28;;;;;;;;;;8255186;28;20464;-73
2021/01/12 13:30:55;;;;;;;122.35;35.70;;;;;;;;;;8254805;28;20568;-73
2021/01/12 13:34:58;;;;;;;59.38;21.58;;;;;;;;;;8254468;28;20509;-72
2021/01/12 13:39:09;;;;;;;53.67;25.35;;;;;;;;;;8254088;28;20053;-74
2021/01/12 13:43:12;;;;;;;45.40;20.90;;;;;;;;;;8254391;28;20498;-73
2021/01/12 13:47:18;;;;;;;37.83;16.98;;;;;;;;;;8254247;28;20462;-73
2021/01/12 13:51:21;;;;;;;33.42;14.20;;;;;;;;;;8251961;28;20382;-73
2021/01/12 13:55:25;;;;;;;38.05;14.77;;;;;;;;;;8253036;28;20502;-73
2021/01/12 13:59:33;;;;;;;39.63;14.30;;;;;;;;;;8251815;28;20467;-73
2021/01/12 14:03:37;;;;;;;41.50;15.10;;;;;;;;;;8251837;28;20048;-73
2021/01/12 14:07:40;;;;;;;35.15;14.18;;;;;;;;;;8252137;28;20052;-73
2021/01/12 14:11:43;;;;;;;25.02;10.93;;;;;;;;;;8251725;28;20521;-74
2021/01/12 14:15:46;;;;;;;32.22;12.43;;;;;;;;;;8253698;28;20377;-73
2021/01/12 14:19:49;;;;;;;47.72;18.35;;;;;;;;;;8252882;28;20384;-74
2021/01/12 14:23:53;;;;;;;411.13;119.20;;;;;;;;;;8252216;28;20470;-73
2021/01/12 14:27:57;;;;;;;496.13;161.68;;;;;;;;;;8251270;28;20399;-74
2021/01/12 14:32:01;;;;;;;1054.78;358.17;;;;;;;;;;8250616;28;20055;-73
2021/01/12 14:36:07;;;;;;;742.85;250.45;;;;;;;;;;8250236;28;20381;-74
2021/01/12 14:40:16;;;;;;;593.47;176.52;;;;;;;;;;8251708;28;20543;-73
2021/01/12 14:44:23;;;;;;;163.73;48.03;;;;;;;;;;8248172;28;20063;-73
2021/01/12 14:48:26;;;;;;;345.65;100.85;;;;;;;;;;8264022;28;20364;-73
2021/01/12 14:52:29;;;;;;;158.23;46.17;;;;;;;;;;8251688;28;20477;-74
2021/01/12 14:56:36;;;;;;;146.32;44.60;;;;;;;;;;8252502;28;20357;-74
2021/01/12 15:00:39;;;;;;;128.10;44.67;;;;;;;;;;8250608;28;20664;-75
2021/01/12 15:04:42;;;;;;;596.33;225.85;;;;;;;;;;8248977;28;20357;-74
2021/01/12 15:08:45;;;;;;;132.77;46.65;;;;;;;;;;8231251;28;20047;-74
2021/01/12 15:12:48;;;;;;;58.17;23.17;;;;;;;;;;8251585;28;20075;-73
2021/01/12 15:16:51;;;;;;;27.42;11.90;;;;;;;;;;8256610;28;20061;-75
2021/01/12 15:20:54;;;;;;;61.30;18.15;;;;;;;;;;8257989;28;20475;-73
2021/01/12 15:24:58;;;;;;;35.40;14.05;;;;;;;;;;8256978;28;20391;-74
2021/01/12 15:29:01;;;;;;;112.00;47.58;;;;;;;;;;8256258;28;20494;-74
2021/01/12 15:33:04;;;;;;;208.40;55.78;;;;;;;;;;8254912;28;20379;-74
2021/01/12 15:37:07;;;;;;;34.92;15.80;;;;;;;;;;8238820;28;20382;-73
2021/01/12 15:41:23;;;;;;;46.72;20.67;;;;;;;;;;8257238;28;20482;-74
2021/01/12 15:45:26;;;;;;;58.30;19.08;;;;;;;;;;8258060;28;20052;-74
2021/01/12 15:49:29;;;;;;;24.85;10.57;;;;;;;;;;8256050;28;20476;-74
2021/01/12 15:53:51;;;;;;;30.15;13.82;;;;;;;;;;8259137;28;20368;-73
2021/01/12 15:57:56;;;;;;;61.20;27.33;;;;;;;;;;8222614;28;20335;-74
2021/01/12 16:01:59;;;;;;;262.33;81.80;;;;;;;;;;8255478;28;20467;-74
2021/01/12 16:06:05;;;;;;;73.75;26.85;;;;;;;;;;8222791;28;20090;-74
2021/01/12 16:10:09;;;;;;;40.03;16.92;;;;;;;;;;8254868;28;20460;-73
2021/01/12 16:14:12;;;;;;;47.75;18.15;;;;;;;;;;8256240;28;20379;-73
2021/01/12 16:18:16;;;;;;;63.13;20.17;;;;;;;;;;8239051;28;20485;-73
2021/01/12 16:22:20;;;;;;;68.05;24.35;;;;;;;;;;8237895;28;20391;-73
2021/01/12 16:26:28;;;;;;;73.22;26.52;;;;;;;;;;8268152;28;20071;-73
2021/01/12 16:30:33;;;;;;;607.97;256.50;;;;;;;;;;8254660;28;20455;-74
2021/01/12 16:34:52;;;;;;;204.30;60.10;;;;;;;;;;8237579;28;20478;-73
2021/01/12 16:38:56;;;;;;;85.72;27.67;;;;;;;;;;8252564;28;20679;-73
2021/01/12 16:43:15;;;;;;;63.95;23.80;;;;;;;;;;8238663;28;20071;-73
2021/01/12 16:47:24;;;;;;;62.35;23.10;;;;;;;;;;8223139;28;20353;-73
2021/01/12 16:51:45;;;;;;;195.55;51.47;;;;;;;;;;8237058;28;20384;-73
2021/01/12 17:00:58;;;;;;;443.00;120.75;;;;;;;;;;8261166;28;20378;-73
2021/01/12 17:05:15;;;;;;;112.82;27.17;;;;;;;;;;8254871;28;20049;-75
2021/01/12 17:09:25;;;;;;;137.32;32.03;;;;;;;;;;8237985;28;20489;-73
2021/01/12 17:13:34;;;;;;;255.68;43.97;;;;;;;;;;8253285;28;20411;-73
2021/01/12 17:17:50;;;;;;;197.63;36.22;;;;;;;;;;8238978;28;20479;-73
2021/01/12 17:22:01;;;;;;;555.38;172.30;;;;;;;;;;8205252;28;20442;-73
2021/01/12 17:26:27;;;;;;;604.63;165.73;;;;;;;;;;8226946;28;20063;-74
2021/01/12 17:30:33;;;;;;;152.15;37.60;;;;;;;;;;8240854;28;20480;-73
2021/01/12 17:34:42;;;;;;;182.40;34.90;;;;;;;;;;8208096;28;20459;-74
2021/01/12 17:38:48;;;;;;;166.27;38.15;;;;;;;;;;8205221;28;20657;-73
2021/01/12 17:43:01;;;;;;;135.73;32.90;;;;;;;;;;8242162;28;20369;-73
2021/01/12 17:47:08;;;;;;;113.20;34.30;;;;;;;;;;8256256;28;20402;-74
2021/01/12 17:51:17;;;;;;;139.35;46.60;;;;;;;;;;8253946;28;20573;-73
2021/01/12 17:55:24;;;;;;;555.85;145.75;;;;;;;;;;8269524;28;20357;-73
2021/01/12 17:59:28;;;;;;;54.80;20.20;;;;;;;;;;8257165;28;20483;-73
2021/01/12 18:03:54;;;;;;;126.65;37.03;;;;;;;;;;8265691;28;20489;-73
2021/01/12 18:08:07;;;;;;;94.57;35.78;;;;;;;;;;8236925;28;20378;-73
2021/01/12 18:12:17;;;;;;;85.28;33.03;;;;;;;;;;8209994;28;20482;-73
2021/01/12 18:16:22;;;;;;;47.25;20.15;;;;;;;;;;8254825;28;20478;-73
2021/01/12 18:20:27;;;;;;;216.82;88.00;;;;;;;;;;8270118;28;20418;-73
2021/01/12 18:24:32;;;;;;;109.20;29.10;;;;;;;;;;8272816;28;20455;-76
2021/01/12 18:28:48;;;;;;;86.15;28.27;;;;;;;;;;8256260;28;20459;-73
2021/01/12 18:32:52;;;;;;;71.03;26.58;;;;;;;;;;8252289;28;20504;-73
2021/01/12 18:36:59;;;;;;;120.03;45.65;;;;;;;;;;8268576;28;20382;-73
2021/01/12 18:41:06;;;;;;;85.85;34.50;;;;;;;;;;8237964;28;20478;-73
2021/01/12 18:45:28;;;;;;;86.85;33.92;;;;;;;;;;8255451;28;20476;-73
2021/01/12 18:49:39;;;;;;;167.40;66.82;;;;;;;;;;8254107;28;20505;-73
2021/01/12 18:53:43;;;;;;;136.88;45.00;;;;;;;;;;8254276;28;20487;-73
2021/01/12 18:57:51;;;;;;;115.05;39.30;;;;;;;;;;8270663;28;20391;-73
2021/01/12 19:02:02;;;;;;;95.78;40.38;;;;;;;;;;8254926;28;20361;-73
2021/01/12 19:06:09;;;;;;;69.55;29.88;;;;;;;;;;8269773;28;20370;-73
2021/01/12 19:10:12;;;;;;;106.97;41.65;;;;;;;;;;8265502;28;20411;-73
2021/01/12 19:14:16;;;;;;;68.50;28.48;;;;;;;;;;8252296;28;20049;-73
2021/01/12 19:18:20;;;;;;;880.97;312.70;;;;;;;;;;8254051;28;20464;-73
2021/01/12 19:22:25;;;;;;;1352.00;418.27;;;;;;;;;;8254363;28;20479;-73
2021/01/12 19:26:29;;;;;;;1999.90;684.50;;;;;;;;;;8252811;28;20475;-73
2021/01/12 19:30:34;;;;;;;519.03;116.20;;;;;;;;;;8267988;28;20383;-73
2021/01/12 19:34:43;;;;;;;441.27;86.90;;;;;;;;;;8253839;28;20476;-74
2021/01/12 19:38:46;;;;;;;;;;;;;;;;;;8252226;28;20524;-73
2021/01/12 19:42:52;;;;;;;273.55;53.70;;;;;;;;;;8255345;28;19928;-74
2021/01/12 19:46:59;;;;;;;375.40;64.32;;;;;;;;;;8255258;28;20071;-73
2021/01/12 19:51:04;;;;;;;300.63;55.20;;;;;;;;;;8254557;28;20045;-73
2021/01/12 19:55:07;;;;;;;324.98;57.00;;;;;;;;;;8236362;28;20367;-73
2021/01/12 19:59:11;;;;;;;216.65;42.88;;;;;;;;;;8211135;28;20427;-74
2021/01/12 20:03:15;;;;;;;261.85;45.78;;;;;;;;;;8241218;28;20460;-74
2021/01/12 20:07:20;;;;;;;404.10;67.00;;;;;;;;;;8266373;28;20486;-73
2021/01/12 20:11:36;;;;;;;225.63;44.70;;;;;;;;;;8258863;28;20064;-73
2021/01/12 20:15:45;;;;;;;171.73;41.35;;;;;;;;;;8260233;28;20475;-74
2021/01/12 20:19:56;;;;;;;321.20;59.63;;;;;;;;;;8257333;28;20061;-73
2021/01/12 20:24:08;;;;;;;374.50;62.22;;;;;;;;;;8261514;28;20383;-73
2021/01/12 20:28:17;;;;;;;308.48;56.03;;;;;;;;;;8259276;28;20375;-74
2021/01/12 20:32:23;;;;;;;244.68;43.55;;;;;;;;;;8260133;28;20472;-74
2021/01/12 20:36:36;;;;;;;275.23;48.13;;;;;;;;;;8259546;28;20454;-75
2021/01/12 20:40:40;;;;;;;199.02;39.17;;;;;;;;;;8261307;28;20052;-74
2021/01/12 20:44:45;;;;;;;239.07;43.08;;;;;;;;;;8276918;28;20413;-74
2021/01/12 20:48:48;;;;;;;247.25;42.30;;;;;;;;;;8256665;28;20464;-75
2021/01/12 20:52:53;;;;;;;203.15;41.65;;;;;;;;;;8255703;28;20080;-75
2021/01/12 20:56:56;;;;;;;357.55;65.75;;;;;;;;;;8207752;28;20717;-75
2021/01/12 21:01:12;;;;;;;156.32;36.72;;;;;;;;;;8223241;28;20784;-75
2021/01/12 21:05:15;;;;;;;104.80;24.98;;;;;;;;;;8262393;28;20477;-74
2021/01/12 21:09:36;;;;;;;128.82;30.63;;;;;;;;;;8274650;28;20379;-73
2021/01/12 21:13:39;;;;;;;253.13;44.72;;;;;;;;;;8272439;28;20380;-75
2021/01/12 21:17:50;;;;;;;147.50;33.50;;;;;;;;;;8256775;28;20379;-75
2021/01/12 21:21:53;;;;;;;157.00;31.58;;;;;;;;;;8256639;28;20487;-75
2021/01/12 21:25:57;;;;;;;95.57;22.17;;;;;;;;;;8256372;28;20403;-75
2021/01/12 21:30:00;;;;;;;164.05;35.90;;;;;;;;;;8254148;28;20049;-75
2021/01/12 21:34:04;;;;;;;182.45;33.38;;;;;;;;;;8256852;28;20465;-75
2021/01/12 21:38:07;;;;;;;105.80;24.90;;;;;;;;;;8258083;28;20414;-75
2021/01/12 21:42:11;;;;;;;195.88;42.50;;;;;;;;;;8255765;28;20849;-75
2021/01/12 21:46:14;;;;;;;152.95;32.42;;;;;;;;;;8256665;28;20368;-75
2021/01/12 21:50:17;;;;;;;93.15;27.77;;;;;;;;;;8253847;28;20609;-75
2021/01/12 21:54:20;;;;;;;161.93;34.67;;;;;;;;;;8268667;28;20071;-75
2021/01/12 21:58:23;;;;;;;116.60;28.58;;;;;;;;;;8255263;28;20419;-75
2021/01/12 22:02:27;;;;;;;317.08;55.75;;;;;;;;;;8254565;28;20495;-74
2021/01/12 22:06:30;;;;;;;199.98;42.67;;;;;;;;;;8254590;28;20049;-75
2021/01/12 22:10:33;;;;;;;172.02;32.05;;;;;;;;;;8254680;28;20390;-75
2021/01/12 22:14:36;;;;;;;163.85;36.58;;;;;;;;;;8252024;28;20464;-75
2021/01/12 22:18:39;;;;;;;71.07;19.10;;;;;;;;;;8269182;28;20052;-75
2021/01/12 22:22:43;;;;;;;72.13;22.45;;;;;;;;;;8252812;28;20452;-74
2021/01/12 22:26:46;;;;;;;143.18;33.00;;;;;;;;;;8253929;28;20490;-75
2021/01/12 22:30:49;;;;;;;142.98;31.17;;;;;;;;;;8253539;28;20057;-75
2021/01/12 22:34:53;;;;;;;109.80;25.08;;;;;;;;;;8251716;28;20394;-74
2021/01/12 22:38:56;;;;;;;123.70;26.88;;;;;;;;;;8253474;28;20367;-76
2021/01/12 22:42:59;;;;;;;110.05;29.25;;;;;;;;;;8253227;28;20467;-74
2021/01/12 22:47:02;;;;;;;159.75;31.63;;;;;;;;;;8253087;28;20493;-74
2021/01/12 22:51:05;;;;;;;97.50;22.02;;;;;;;;;;8251715;28;20376;-76
2021/01/12 22:55:09;;;;;;;90.88;22.55;;;;;;;;;;8250335;28;20456;-74
2021/01/12 22:59:16;;;;;;;165.00;35.80;;;;;;;;;;8249893;28;20498;-75
2021/01/12 23:03:19;;;;;;;75.80;22.40;;;;;;;;;;8251857;28;20463;-75
2021/01/12 23:07:23;;;;;;;65.78;17.10;;;;;;;;;;8252679;28;20494;-76
2021/01/12 23:11:26;;;;;;;56.22;15.27;;;;;;;;;;8252178;28;20107;-74
2021/01/12 23:15:29;;;;;;;133.32;29.35;;;;;;;;;;8252356;28;20392;-74
2021/01/12 23:19:32;;;;;;;89.88;21.52;;;;;;;;;;8250869;28;20084;-78
2021/01/12 23:23:35;;;;;;;113.03;24.05;;;;;;;;;;8250517;28;20064;-75
2021/01/12 23:27:39;;;;;;;59.80;15.82;;;;;;;;;;8250565;28;20388;-75
2021/01/12 23:31:42;;;;;;;108.00;26.23;;;;;;;;;;8252306;28;20387;-75
2021/01/12 23:35:45;;;;;;;107.82;27.63;;;;;;;;;;8254107;28;20053;-75
2021/01/12 23:39:51;;;;;;;89.25;22.67;;;;;;;;;;8258380;28;20523;-75
2021/01/12 23:43:54;;;;;;;93.22;22.83;;;;;;;;;;8272726;28;20483;-75